createdAt,value
2019-04-25T00:01:01.226Z,99001.00
2019-04-25T00:03:53.391Z,98997.53
2019-04-25T00:06:43.996Z,98997.63
2019-04-25T00:09:41.956Z,98989.31
2019-04-25T00:12:32.025Z,98994.86
2019-04-25T00:15:22.388Z,98987.94
2019-04-25T00:18:12.086Z,98988.80
2019-04-25T00:21:09.081Z,98992.45
2019-04-25T00:24:02.720Z,98992.84
2019-04-25T00:26:52.508Z,98986.16
2019-04-25T00:29:44.538Z,98984.77
2019-04-25T00:32:33.770Z,98986.08
2019-04-25T00:35:23.236Z,98987.64
2019-04-25T00:38:12.642Z,98995.16
2019-04-25T00:41:02.436Z,98998.05
2019-04-25T00:43:52.544Z,98997.00
2019-04-25T00:46:46.385Z,98996.23
2019-04-25T00:49:32.395Z,99004.38
2019-04-25T00:52:22.858Z,99001.81
2019-04-25T00:55:13.222Z,98999.64
2019-04-25T00:58:09.464Z,98996.72
2019-04-25T01:01:19.320Z,98996.01
2019-04-25T01:04:08.081Z,98999.45
2019-04-25T01:06:57.601Z,98995.09
2019-04-25T01:09:47.855Z,98997.70
2019-04-25T01:12:36.454Z,98993.72
2019-04-25T01:15:26.110Z,98990.73
2019-04-25T01:18:15.045Z,98994.23
2019-04-25T01:21:04.582Z,98994.55
2019-04-25T01:23:54.561Z,99004.86
2019-04-25T01:26:43.896Z,99011.36
2019-04-25T01:29:33.498Z,99012.45
2019-04-25T01:32:34.411Z,99016.23
2019-04-25T01:35:44.841Z,99017.18
2019-04-25T01:38:47.319Z,99016.17
2019-04-25T01:42:01.564Z,99023.56
2019-04-25T01:44:51.634Z,99014.85
2019-04-25T01:47:41.227Z,99012.61
2019-04-25T01:50:29.873Z,99007.33
2019-04-25T01:53:19.269Z,99000.55
2019-04-25T01:56:08.287Z,99009.17
2019-04-25T01:58:57.370Z,99003.53
2019-04-25T02:01:46.591Z,98999.33
2019-04-25T02:04:36.121Z,99003.70
2019-04-25T02:07:25.965Z,99001.91
2019-04-25T02:10:15.634Z,98999.05
2019-04-25T02:13:07.221Z,98994.13
2019-04-25T02:15:57.187Z,98996.84
2019-04-25T02:18:46.952Z,99006.94
2019-04-25T02:21:36.064Z,99001.92
2019-04-25T02:24:24.844Z,99004.41
2019-04-25T02:27:13.615Z,99022.25
2019-04-25T02:30:06.170Z,99013.25
2019-04-25T02:32:56.029Z,99025.30
2019-04-25T02:35:46.695Z,99033.39
2019-04-25T02:38:35.645Z,99039.67
2019-04-25T02:41:26.741Z,99035.13
2019-04-25T02:44:16.061Z,99031.03
2019-04-25T02:47:34.497Z,99033.16
2019-04-25T02:50:34.467Z,99042.71
2019-04-25T02:53:36.904Z,99042.98
2019-04-25T02:56:31.200Z,99043.19
2019-04-25T02:59:15.144Z,99045.84
2019-04-25T03:02:05.804Z,99040.77
2019-04-25T03:04:54.809Z,99047.92
2019-04-25T03:07:44.682Z,99060.53
2019-04-25T03:10:34.942Z,99050.88
2019-04-25T03:13:24.860Z,99053.16
2019-04-25T03:16:14.652Z,99054.30
2019-04-25T03:19:14.583Z,99060.47
2019-04-25T03:22:09.185Z,99074.45
2019-04-25T03:24:55.474Z,99071.45
2019-04-25T03:27:45.314Z,99080.45
2019-04-25T03:30:35.482Z,99077.66
2019-04-25T03:33:26.027Z,99085.53
2019-04-25T03:36:17.052Z,99095.02
2019-04-25T03:39:07.352Z,99093.87
2019-04-25T03:41:57.153Z,99090.75
2019-04-25T03:44:46.446Z,99097.92
2019-04-25T03:47:36.092Z,99100.63
2019-04-25T03:50:26.053Z,99104.77
2019-04-25T03:53:15.820Z,99119.68
2019-04-25T03:56:06.406Z,99110.75
2019-04-25T03:58:55.813Z,99104.46
2019-04-25T04:01:44.512Z,99097.07
2019-04-25T04:04:33.999Z,99082.19
2019-04-25T04:07:23.725Z,99083.30
2019-04-25T04:10:15.487Z,99076.68
2019-04-25T04:13:06.289Z,99070.12
2019-04-25T04:15:56.289Z,99062.34
2019-04-25T04:18:47.261Z,99050.05
2019-04-25T04:21:45.213Z,99045.55
2019-04-25T04:24:39.213Z,99036.84
2019-04-25T04:27:28.041Z,99037.70
2019-04-25T04:30:17.760Z,99016.05
2019-04-25T04:33:08.538Z,99025.27
2019-04-25T04:35:58.457Z,99029.48
2019-04-25T04:38:47.276Z,99032.72
2019-04-25T04:41:36.514Z,99044.61
2019-04-25T04:44:25.393Z,99056.60
2019-04-25T04:47:15.308Z,99069.81
2019-04-25T04:50:05.177Z,99105.95
2019-04-25T04:52:54.959Z,99129.08
2019-04-25T04:55:44.177Z,99142.34
2019-04-25T04:58:34.297Z,99176.70
2019-04-25T05:01:26.412Z,99206.91
2019-04-25T05:04:21.791Z,99209.73
2019-04-25T05:07:29.969Z,99198.67
2019-04-25T05:10:20.050Z,99199.72
2019-04-25T05:13:09.855Z,99211.36
2019-04-25T05:15:58.477Z,99211.25
2019-04-25T05:18:48.160Z,99195.28
2019-04-25T05:21:37.991Z,99184.39
2019-04-25T05:24:27.465Z,99180.14
2019-04-25T05:27:30.557Z,99169.19
2019-04-25T05:30:08.673Z,99157.27
2019-04-25T05:32:57.942Z,99152.41
2019-04-25T05:35:47.983Z,99141.07
2019-04-25T05:38:36.808Z,99128.16
2019-04-25T05:41:45.024Z,99110.59
2019-04-25T05:44:34.367Z,99095.78
2019-04-25T05:47:26.016Z,99084.25
2019-04-25T05:50:13.967Z,99081.87
2019-04-25T05:53:04.329Z,99075.23
2019-04-25T05:55:54.282Z,99060.22
2019-04-25T05:58:43.954Z,99068.79
2019-04-25T06:01:34.340Z,99070.94
2019-04-25T06:04:24.686Z,99064.09
2019-04-25T06:07:14.483Z,99061.69
2019-04-25T06:10:40.843Z,99071.47
2019-04-25T06:14:00.205Z,99083.16
2019-04-25T06:16:48.031Z,99087.58
2019-04-25T06:19:39.589Z,99105.89
2019-04-25T06:22:50.386Z,99128.34
2019-04-25T06:25:39.980Z,99141.14
2019-04-25T06:28:34.361Z,99147.78
2019-04-25T06:31:23.830Z,99151.59
2019-04-25T06:34:13.962Z,99157.46
2019-04-25T06:37:05.968Z,99152.12
2019-04-25T06:39:53.697Z,99154.92
2019-04-25T06:42:43.560Z,99150.98
2019-04-25T06:45:54.079Z,99152.77
2019-04-25T06:48:48.342Z,99153.63
2019-04-25T06:51:51.194Z,99153.18
2019-04-25T06:54:39.905Z,99155.79
2019-04-25T06:57:30.530Z,99150.00
2019-04-25T07:00:20.206Z,99151.69
2019-04-25T07:03:09.896Z,99146.53
2019-04-25T07:05:59.321Z,99143.09
2019-04-25T07:08:48.654Z,99148.13
2019-04-25T07:11:37.436Z,99157.05
2019-04-25T07:14:27.069Z,99163.10
2019-04-25T07:17:16.809Z,99160.98
2019-04-25T07:20:06.706Z,99159.97
2019-04-25T07:22:55.907Z,99166.48
2019-04-25T07:25:51.191Z,99162.10
2019-04-25T07:29:07.951Z,99166.75
2019-04-25T07:32:31.187Z,99160.86
2019-04-25T07:35:20.786Z,99149.06
2019-04-25T07:38:10.497Z,99139.05
2019-04-25T07:40:59.179Z,99115.23
2019-04-25T07:43:48.841Z,99115.37
2019-04-25T07:46:39.983Z,99129.95
2019-04-25T07:49:30.497Z,99134.81
2019-04-25T07:52:18.909Z,99127.28
2019-04-25T07:55:08.555Z,99132.53
2019-04-25T07:57:57.758Z,99120.09
2019-04-25T08:00:46.498Z,99121.14
2019-04-25T08:03:36.894Z,99116.61
2019-04-25T08:06:25.817Z,99117.59
2019-04-25T08:09:15.771Z,99118.16
2019-04-25T08:12:04.587Z,99112.30
2019-04-25T08:15:04.075Z,99108.45
2019-04-25T08:17:58.901Z,99113.75
2019-04-25T08:20:48.442Z,99111.09
2019-04-25T08:23:38.947Z,99107.87
2019-04-25T08:26:29.435Z,99113.42
2019-04-25T08:29:18.324Z,99119.16
2019-04-25T08:32:07.794Z,99117.33
2019-04-25T08:34:56.989Z,99123.92
2019-04-25T08:37:46.258Z,99132.61
2019-04-25T08:40:37.774Z,99133.81
2019-04-25T08:43:26.844Z,99135.66
2019-04-25T08:46:16.565Z,99130.83
2019-04-25T08:49:15.927Z,99121.98
2019-04-25T08:52:05.510Z,99124.80
2019-04-25T08:55:00.189Z,99114.96
2019-04-25T08:58:03.725Z,99120.66
2019-04-25T09:01:05.274Z,99109.00
2019-04-25T09:04:13.476Z,99110.92
2019-04-25T09:07:03.381Z,99101.55
2019-04-25T09:09:53.538Z,99104.32
2019-04-25T09:12:44.225Z,99104.89
2019-04-25T09:15:35.628Z,99106.60
2019-04-25T09:18:23.966Z,99099.82
2019-04-25T09:21:13.903Z,99094.44
2019-04-25T09:24:03.614Z,99077.62
2019-04-25T09:26:54.079Z,99072.38
2019-04-25T09:29:45.228Z,99078.59
2019-04-25T09:32:35.532Z,99083.02
2019-04-25T09:35:24.866Z,99078.19
2019-04-25T09:38:13.567Z,99066.52
2019-04-25T09:41:03.846Z,99066.15
2019-04-25T09:43:56.349Z,99060.07
2019-04-25T09:46:46.877Z,99058.84
2019-04-25T09:49:37.962Z,99052.36
2019-04-25T09:52:27.530Z,99046.55
2019-04-25T09:55:33.949Z,99051.41
2019-04-25T09:58:48.534Z,99047.03
2019-04-25T10:01:40.206Z,99037.05
2019-04-25T10:04:29.464Z,99028.84
2019-04-25T10:07:18.556Z,99029.74
2019-04-25T10:10:08.551Z,99028.30
2019-04-25T10:12:57.402Z,99027.70
2019-04-25T10:15:54.451Z,99032.56
2019-04-25T10:18:44.670Z,99024.63
2019-04-25T10:21:34.963Z,99009.28
2019-04-25T10:24:23.988Z,99005.44
2019-04-25T10:27:13.990Z,99002.80
2019-04-25T10:30:16.001Z,99001.83
2019-04-25T10:32:54.779Z,98988.75
2019-04-25T10:35:51.990Z,98967.77
2019-04-25T10:38:35.105Z,98962.14
2019-04-25T10:41:25.860Z,98946.45
2019-04-25T10:44:15.019Z,98948.17
2019-04-25T10:47:04.929Z,98941.92
2019-04-25T10:49:55.490Z,98936.80
2019-04-25T10:52:45.819Z,98926.86
2019-04-25T10:55:34.687Z,98919.64
2019-04-25T10:58:24.531Z,98917.08
2019-04-25T11:01:15.347Z,98912.34
2019-04-25T11:04:41.069Z,98906.13
2019-04-25T11:07:30.234Z,98890.89
2019-04-25T11:10:19.673Z,98892.18
2019-04-25T11:13:08.420Z,98890.81
2019-04-25T11:15:57.859Z,98892.61
2019-04-25T11:18:48.355Z,98887.11
2019-04-25T11:21:37.186Z,98887.54
2019-04-25T11:24:26.478Z,98884.12
2019-04-25T11:27:16.217Z,98881.75
2019-04-25T11:30:10.905Z,98873.70
2019-04-25T11:32:58.154Z,98866.97
2019-04-25T11:35:48.998Z,98871.17
2019-04-25T11:39:04.188Z,98857.58
2019-04-25T11:41:55.651Z,98871.72
2019-04-25T11:44:45.735Z,98865.95
2019-04-25T11:47:35.958Z,98859.76
2019-04-25T11:50:25.389Z,98861.03
2019-04-25T11:53:14.832Z,98852.48
2019-04-25T11:56:04.251Z,98855.27
2019-04-25T11:58:54.219Z,98856.63
2019-04-25T12:01:45.345Z,98867.59
2019-04-25T12:04:34.878Z,98860.84
2019-04-25T12:07:24.433Z,98864.73
2019-04-25T12:10:13.892Z,98859.98
2019-04-25T12:13:02.932Z,98859.31
2019-04-25T12:15:52.484Z,98854.09
2019-04-25T12:18:44.777Z,98859.25
2019-04-25T12:21:34.026Z,98851.80
2019-04-25T12:24:23.931Z,98843.62
2019-04-25T12:27:12.597Z,98847.09
2019-04-25T12:30:01.347Z,98847.31
2019-04-25T12:32:52.304Z,98835.70
2019-04-25T12:35:43.883Z,98844.85
2019-04-25T12:38:35.406Z,98840.16
2019-04-25T12:41:25.319Z,98837.28
2019-04-25T12:44:32.411Z,98823.21
2019-04-25T12:47:24.020Z,98818.09
2019-04-25T12:50:14.380Z,98825.75
2019-04-25T12:53:03.753Z,98835.45
2019-04-25T12:55:53.795Z,98824.59
2019-04-25T12:58:43.580Z,98815.59
2019-04-25T13:01:33.344Z,98806.26
2019-04-25T13:04:22.885Z,98788.42
2019-04-25T13:07:13.714Z,98780.94
2019-04-25T13:10:03.202Z,98775.78
2019-04-25T13:12:55.286Z,98776.34
2019-04-25T13:15:45.865Z,98785.09
2019-04-25T13:18:33.853Z,98778.10
2019-04-25T13:21:23.625Z,98766.80
2019-04-25T13:24:13.286Z,98764.91
2019-04-25T13:27:23.480Z,98765.61
2019-04-25T13:30:29.915Z,98754.47
2019-04-25T13:33:50.585Z,98749.55
2019-04-25T13:36:39.537Z,98737.92
2019-04-25T13:39:29.580Z,98739.73
2019-04-25T13:42:18.496Z,98738.56
2019-04-25T13:45:07.549Z,98733.54
2019-04-25T13:47:56.756Z,98723.78
2019-04-25T13:50:46.368Z,98725.03
2019-04-25T13:53:35.611Z,98714.63
2019-04-25T13:56:26.537Z,98707.41
2019-04-25T13:59:15.834Z,98701.41
2019-04-25T14:02:06.993Z,98699.30
2019-04-25T14:04:56.466Z,98694.09
2019-04-25T14:07:45.682Z,98704.23
2019-04-25T14:10:34.474Z,98699.06
2019-04-25T14:13:25.095Z,98688.59
2019-04-25T14:16:30.607Z,98686.77
2019-04-25T14:19:48.241Z,98688.94
2019-04-25T14:22:37.053Z,98677.63
2019-04-25T14:25:27.655Z,98686.52
2019-04-25T14:28:17.173Z,98661.75
2019-04-25T14:31:08.139Z,98669.95
2019-04-25T14:33:57.496Z,98663.78
2019-04-25T14:36:46.581Z,98653.46
2019-04-25T14:39:36.230Z,98662.70
2019-04-25T14:42:26.488Z,98658.50
2019-04-25T14:45:17.047Z,98659.21
2019-04-25T14:48:06.021Z,98654.98
2019-04-25T14:50:55.693Z,98660.79
2019-04-25T14:53:44.489Z,98654.94
2019-04-25T14:57:01.696Z,98655.28
2019-04-25T14:59:51.377Z,98657.02
2019-04-25T15:02:40.785Z,98652.34
2019-04-25T15:05:31.020Z,98645.77
2019-04-25T15:08:20.357Z,98643.77
2019-04-25T15:11:10.181Z,98638.48
2019-04-25T15:13:59.057Z,98634.34
2019-04-25T15:16:48.279Z,98645.48
2019-04-25T15:19:37.385Z,98634.93
2019-04-25T15:22:26.608Z,98640.34
2019-04-25T15:25:15.346Z,98635.41
2019-04-25T15:28:04.229Z,98633.55
2019-04-25T15:30:53.570Z,98626.61
2019-04-25T15:33:42.975Z,98618.56
2019-04-25T15:36:54.212Z,98618.48
2019-04-25T15:39:49.899Z,98610.20
2019-04-25T15:42:52.265Z,98605.48
2019-04-25T15:45:55.817Z,98599.52
2019-04-25T15:48:44.975Z,98593.88
2019-04-25T15:51:33.569Z,98590.84
2019-04-25T15:54:22.939Z,98585.88
2019-04-25T15:57:12.762Z,98582.45
2019-04-25T16:00:02.035Z,98571.80
2019-04-25T16:02:51.656Z,98567.34
2019-04-25T16:05:39.976Z,98575.27
2019-04-25T16:08:28.902Z,98570.53
2019-04-25T16:11:17.922Z,98565.70
2019-04-25T16:14:07.402Z,98562.61
2019-04-25T16:16:57.049Z,98569.98
2019-04-25T16:19:46.517Z,98581.24
2019-04-25T16:22:36.610Z,98573.55
2019-04-25T16:25:27.346Z,98576.09
2019-04-25T16:28:16.075Z,98579.98
2019-04-25T16:31:07.102Z,98575.48
2019-04-25T16:33:56.358Z,98575.56
2019-04-25T16:36:45.701Z,98580.78
2019-04-25T16:39:35.950Z,98574.80
2019-04-25T16:42:25.269Z,98583.47
2019-04-25T16:45:14.946Z,98581.38
2019-04-25T16:48:04.603Z,98584.41
2019-04-25T16:50:53.174Z,98582.66
2019-04-25T16:53:43.035Z,98587.11
2019-04-25T16:56:32.465Z,98585.68
2019-04-25T16:59:21.714Z,98588.79
2019-04-25T17:02:11.519Z,98592.34
2019-04-25T17:05:01.062Z,98593.67
2019-04-25T17:07:50.519Z,98589.09
2019-04-25T17:10:39.561Z,98601.95
2019-04-25T17:13:32.054Z,98614.91
2019-04-25T17:16:47.867Z,98630.29
2019-04-25T17:19:52.997Z,98654.06
2019-04-25T17:22:42.518Z,98681.43
2019-04-25T17:25:32.611Z,98689.17
2019-04-25T17:28:23.191Z,98714.84
2019-04-25T17:31:23.123Z,98721.18
2019-04-25T18:33:10.594Z,98965.02
2019-04-25T18:35:59.646Z,98977.23
2019-04-25T18:39:32.083Z,98981.05
2019-04-25T18:43:30.044Z,98993.31
2019-04-25T18:54:25.236Z,99031.11
2019-04-25T18:57:37.534Z,99040.39
2019-04-25T19:00:51.237Z,99048.47
2019-04-25T19:04:05.131Z,99058.89
2019-04-25T19:07:01.298Z,99071.66
2019-04-25T19:10:01.061Z,99084.97
2019-04-25T19:12:56.600Z,99081.20
2019-04-25T19:15:49.384Z,99089.71
2019-04-25T19:18:51.608Z,99097.27
2019-04-25T19:21:41.787Z,99107.61
2019-04-25T19:24:31.736Z,99108.44
2019-04-25T19:27:24.023Z,99110.23
2019-04-25T19:30:14.148Z,99115.17
2019-04-25T19:33:03.984Z,99110.06
2019-04-25T19:35:53.985Z,99111.05
2019-04-25T19:38:44.027Z,99113.00
2019-04-25T19:41:42.979Z,99117.89
2019-04-25T19:44:33.606Z,99118.19
2019-04-25T19:47:23.894Z,99124.56
2019-04-25T19:50:13.440Z,99120.59
2019-04-25T19:53:02.928Z,99116.57
2019-04-25T19:55:52.003Z,99122.45
2019-04-25T19:58:42.209Z,99136.69
2019-04-25T20:01:31.875Z,99146.41
2019-04-25T20:04:46.790Z,99164.69
2019-04-25T20:07:46.562Z,99151.22
2019-04-25T20:10:41.504Z,99147.61
2019-04-25T20:13:29.992Z,99159.51
2019-04-25T20:16:19.686Z,99164.02
2019-04-25T20:19:09.529Z,99161.16
2019-04-25T20:21:59.760Z,99162.16
2019-04-25T20:24:52.417Z,99162.77
2019-04-25T20:27:42.847Z,99164.74
2019-04-25T20:30:32.512Z,99171.17
2019-04-25T20:33:23.490Z,99174.05
2019-04-25T20:36:17.942Z,99163.91
2019-04-25T20:39:07.130Z,99152.25
2019-04-25T20:41:57.929Z,99160.20
2019-04-25T20:44:47.794Z,99174.12
2019-04-25T20:47:37.692Z,99173.36
2019-04-25T20:50:27.454Z,99178.91
2019-04-25T20:53:17.318Z,99176.69
2019-04-25T20:56:06.957Z,99185.18
2019-04-25T20:58:56.444Z,99190.99
2019-04-25T21:01:47.161Z,99195.91
2019-04-25T21:04:40.901Z,99192.34
2019-04-25T21:07:29.639Z,99192.27
2019-04-25T21:10:18.991Z,99194.26
2019-04-25T21:13:12.411Z,99200.49
2019-04-25T21:16:23.698Z,99202.94
2019-04-25T21:19:13.561Z,99205.99
2019-04-25T21:22:02.285Z,99197.02
2019-04-25T21:24:51.850Z,99203.88
2019-04-25T21:27:41.788Z,99213.57
2019-04-25T21:30:30.738Z,99205.06
2019-04-25T21:33:19.435Z,99212.12
2019-04-25T21:36:09.549Z,99211.04
2019-04-25T21:38:59.803Z,99210.77
2019-04-25T21:42:15.895Z,99212.35
2019-04-25T21:45:05.514Z,99221.59
2019-04-25T21:47:55.217Z,99204.38
2019-04-25T21:50:45.742Z,99202.25
2019-04-25T21:53:35.159Z,99191.52
2019-04-25T21:56:25.109Z,99186.45
2019-04-25T21:59:14.894Z,99192.77
2019-04-25T22:02:04.892Z,99193.16
2019-04-25T22:04:55.821Z,99186.83
2019-04-25T22:07:46.600Z,99177.91
2019-04-25T22:10:35.800Z,99171.09
2019-04-25T22:13:25.137Z,99176.83
2019-04-25T22:16:14.192Z,99174.47
2019-04-25T22:19:04.337Z,99178.22
2019-04-25T22:21:53.990Z,99179.39
2019-04-25T22:24:42.535Z,99189.22
2019-04-25T22:27:36.692Z,99202.73
2019-04-25T22:30:25.695Z,99198.48
2019-04-25T22:33:36.405Z,99181.14
2019-04-25T22:36:25.256Z,99181.66
2019-04-25T22:39:14.608Z,99175.36
2019-04-25T22:42:04.314Z,99181.02
2019-04-25T22:44:53.913Z,99199.67
2019-04-25T22:47:43.711Z,99206.45
2019-04-25T22:50:32.860Z,99195.03
2019-04-25T22:53:25.777Z,99207.44
2019-04-25T22:56:13.005Z,99201.27
2019-04-25T22:59:02.835Z,99197.05
2019-04-25T23:02:09.608Z,99189.52
2019-04-25T23:05:13.835Z,99199.25
2019-04-25T23:07:59.470Z,99195.75
2019-04-25T23:10:49.483Z,99189.52
2019-04-25T23:13:39.173Z,99195.42
2019-04-25T23:16:29.152Z,99185.54
2019-04-25T23:19:19.803Z,99187.20
2019-04-25T23:22:09.468Z,99188.14
2019-04-25T23:25:04.938Z,99182.95
2019-04-25T23:28:06.509Z,99192.16
2019-04-25T23:31:21.345Z,99197.35
2019-04-25T23:34:10.849Z,99206.70
2019-04-25T23:36:59.802Z,99204.25
2019-04-25T23:39:49.079Z,99181.26
2019-04-25T23:42:38.560Z,99173.92
2019-04-25T23:45:27.446Z,99161.67
2019-04-25T23:48:16.591Z,99148.62
2019-04-25T23:51:06.389Z,99176.20
2019-04-25T23:53:56.153Z,99169.16
2019-04-25T23:56:45.903Z,99181.53
2019-04-25T23:59:36.194Z,99192.73
